sensor_id;sensor_type;location;lat;lon;timestamp;P1;durP1;ratioP1;P2;durP2;ratioP2
28180;SDS011;15464;50.988;10.318;2023-08-21T00:01:28;11.88;;;10.88;;
28180;SDS011;15464;50.988;10.318;2023-08-21T00:03:55;12.00;;;10.65;;
28180;SDS011;15464;50.988;10.318;2023-08-21T00:06:22;11.90;;;10.80;;
28180;SDS011;15464;50.988;10.318;2023-08-21T00:08:49;12.13;;;10.82;;
28180;SDS011;15464;50.988;10.318;2023-08-21T00:11:15;12.50;;;11.20;;
28180;SDS011;15464;50.988;10.318;2023-08-21T00:13:44;14.75;;;11.70;;
28180;SDS011;15464;50.988;10.318;2023-08-21T00:18:40;12.27;;;11.15;;
28180;SDS011;15464;50.988;10.318;2023-08-21T00:21:07;12.13;;;10.82;;
28180;SDS011;15464;50.988;10.318;2023-08-21T00:23:34;11.98;;;10.88;;
28180;SDS011;15464;50.988;10.318;2023-08-21T00:26:00;13.18;;;11.00;;
28180;SDS011;15464;50.988;10.318;2023-08-21T00:28:27;16.20;;;11.88;;
28180;SDS011;15464;50.988;10.318;2023-08-21T00:31:02;12.52;;;11.30;;
28180;SDS011;15464;50.988;10.318;2023-08-21T00:33:32;12.50;;;11.23;;
28180;SDS011;15464;50.988;10.318;2023-08-21T00:36:00;11.82;;;10.73;;
28180;SDS011;15464;50.988;10.318;2023-08-21T00:38:27;11.93;;;10.95;;
28180;SDS011;15464;50.988;10.318;2023-08-21T00:40:53;14.15;;;12.45;;
28180;SDS011;15464;50.988;10.318;2023-08-21T00:43:20;14.25;;;12.85;;
28180;SDS011;15464;50.988;10.318;2023-08-21T00:45:48;13.02;;;11.85;;
28180;SDS011;15464;50.988;10.318;2023-08-21T00:48:17;12.93;;;11.55;;
28180;SDS011;15464;50.988;10.318;2023-08-21T00:50:45;13.02;;;11.48;;
28180;SDS011;15464;50.988;10.318;2023-08-21T00:53:12;13.63;;;11.45;;
28180;SDS011;15464;50.988;10.318;2023-08-21T00:55:39;12.55;;;11.45;;
28180;SDS011;15464;50.988;10.318;2023-08-21T00:58:06;14.43;;;12.05;;
28180;SDS011;15464;50.988;10.318;2023-08-21T01:00:36;12.95;;;11.65;;
28180;SDS011;15464;50.988;10.318;2023-08-21T01:03:04;12.50;;;11.40;;
28180;SDS011;15464;50.988;10.318;2023-08-21T01:05:30;15.10;;;12.70;;
28180;SDS011;15464;50.988;10.318;2023-08-21T01:08:05;13.05;;;11.95;;
28180;SDS011;15464;50.988;10.318;2023-08-21T01:10:52;13.13;;;11.88;;
28180;SDS011;15464;50.988;10.318;2023-08-21T01:13:45;13.05;;;11.85;;
28180;SDS011;15464;50.988;10.318;2023-08-21T01:16:22;13.55;;;12.15;;
28180;SDS011;15464;50.988;10.318;2023-08-21T01:18:50;12.90;;;11.70;;
28180;SDS011;15464;50.988;10.318;2023-08-21T01:21:19;13.63;;;11.18;;
28180;SDS011;15464;50.988;10.318;2023-08-21T01:23:46;14.25;;;11.45;;
28180;SDS011;15464;50.988;10.318;2023-08-21T01:26:13;12.82;;;11.63;;
28180;SDS011;15464;50.988;10.318;2023-08-21T01:28:40;13.07;;;11.60;;
28180;SDS011;15464;50.988;10.318;2023-08-21T01:33:45;12.13;;;11.02;;
28180;SDS011;15464;50.988;10.318;2023-08-21T01:36:17;12.50;;;11.40;;
28180;SDS011;15464;50.988;10.318;2023-08-21T01:38:44;15.27;;;12.60;;
28180;SDS011;15464;50.988;10.318;2023-08-21T01:41:11;12.80;;;11.52;;
28180;SDS011;15464;50.988;10.318;2023-08-21T01:43:38;16.45;;;11.40;;
28180;SDS011;15464;50.988;10.318;2023-08-21T01:46:05;14.23;;;11.80;;
28180;SDS011;15464;50.988;10.318;2023-08-21T01:48:32;13.35;;;11.95;;
28180;SDS011;15464;50.988;10.318;2023-08-21T01:51:02;13.00;;;11.90;;
28180;SDS011;15464;50.988;10.318;2023-08-21T01:53:29;12.38;;;11.38;;
28180;SDS011;15464;50.988;10.318;2023-08-21T01:55:56;14.75;;;12.70;;
28180;SDS011;15464;50.988;10.318;2023-08-21T01:58:22;13.15;;;11.63;;
28180;SDS011;15464;50.988;10.318;2023-08-21T02:00:49;12.57;;;11.38;;
28180;SDS011;15464;50.988;10.318;2023-08-21T02:03:16;13.93;;;12.45;;
28180;SDS011;15464;50.988;10.318;2023-08-21T02:05:43;12.40;;;11.10;;
28180;SDS011;15464;50.988;10.318;2023-08-21T02:08:11;12.32;;;11.10;;
28180;SDS011;15464;50.988;10.318;2023-08-21T02:10:47;12.30;;;11.05;;
28180;SDS011;15464;50.988;10.318;2023-08-21T02:13:17;13.30;;;11.95;;
28180;SDS011;15464;50.988;10.318;2023-08-21T02:15:45;15.05;;;12.90;;
28180;SDS011;15464;50.988;10.318;2023-08-21T02:18:12;13.43;;;11.45;;
28180;SDS011;15464;50.988;10.318;2023-08-21T02:20:39;12.35;;;11.10;;
28180;SDS011;15464;50.988;10.318;2023-08-21T02:23:06;12.00;;;10.98;;
28180;SDS011;15464;50.988;10.318;2023-08-21T02:25:32;14.15;;;11.57;;
28180;SDS011;15464;50.988;10.318;2023-08-21T02:27:59;13.50;;;12.18;;
28180;SDS011;15464;50.988;10.318;2023-08-21T02:30:28;11.50;;;10.37;;
28180;SDS011;15464;50.988;10.318;2023-08-21T02:32:55;12.93;;;10.98;;
28180;SDS011;15464;50.988;10.318;2023-08-21T02:35:21;11.45;;;10.32;;
28180;SDS011;15464;50.988;10.318;2023-08-21T02:37:48;13.07;;;11.95;;
28180;SDS011;15464;50.988;10.318;2023-08-21T02:40:15;13.32;;;11.82;;
28180;SDS011;15464;50.988;10.318;2023-08-21T02:42:42;12.05;;;10.27;;
28180;SDS011;15464;50.988;10.318;2023-08-21T02:45:08;12.48;;;11.35;;
28180;SDS011;15464;50.988;10.318;2023-08-21T02:47:36;11.88;;;10.23;;
28180;SDS011;15464;50.988;10.318;2023-08-21T02:50:04;11.40;;;10.27;;
28180;SDS011;15464;50.988;10.318;2023-08-21T02:52:33;12.95;;;11.40;;
28180;SDS011;15464;50.988;10.318;2023-08-21T02:55:02;13.73;;;12.52;;
28180;SDS011;15464;50.988;10.318;2023-08-21T02:57:29;12.73;;;11.52;;
28180;SDS011;15464;50.988;10.318;2023-08-21T02:59:56;13.45;;;12.20;;
28180;SDS011;15464;50.988;10.318;2023-08-21T03:02:23;12.95;;;10.88;;
28180;SDS011;15464;50.988;10.318;2023-08-21T03:04:50;11.18;;;10.18;;
28180;SDS011;15464;50.988;10.318;2023-08-21T03:07:17;12.02;;;10.70;;
28180;SDS011;15464;50.988;10.318;2023-08-21T03:09:46;12.45;;;11.15;;
28180;SDS011;15464;50.988;10.318;2023-08-21T03:12:13;12.07;;;11.00;;
28180;SDS011;15464;50.988;10.318;2023-08-21T03:14:40;11.63;;;10.63;;
28180;SDS011;15464;50.988;10.318;2023-08-21T03:17:07;12.48;;;11.23;;
28180;SDS011;15464;50.988;10.318;2023-08-21T03:19:34;12.13;;;10.80;;
28180;SDS011;15464;50.988;10.318;2023-08-21T03:22:01;12.27;;;10.98;;
28180;SDS011;15464;50.988;10.318;2023-08-21T03:24:28;13.65;;;11.00;;
28180;SDS011;15464;50.988;10.318;2023-08-21T03:26:55;12.32;;;11.00;;
28180;SDS011;15464;50.988;10.318;2023-08-21T03:29:21;12.20;;;10.77;;
28180;SDS011;15464;50.988;10.318;2023-08-21T03:31:52;11.63;;;10.43;;
28180;SDS011;15464;50.988;10.318;2023-08-21T03:34:21;14.95;;;11.23;;
28180;SDS011;15464;50.988;10.318;2023-08-21T03:36:47;12.05;;;10.80;;
28180;SDS011;15464;50.988;10.318;2023-08-21T03:39:14;11.23;;;10.27;;
28180;SDS011;15464;50.988;10.318;2023-08-21T03:41:41;13.77;;;11.40;;
28180;SDS011;15464;50.988;10.318;2023-08-21T03:44:08;12.23;;;10.75;;
28180;SDS011;15464;50.988;10.318;2023-08-21T03:46:35;12.60;;;10.68;;
28180;SDS011;15464;50.988;10.318;2023-08-21T03:49:01;12.95;;;11.25;;
28180;SDS011;15464;50.988;10.318;2023-08-21T03:51:28;12.85;;;10.57;;
28180;SDS011;15464;50.988;10.318;2023-08-21T03:53:55;13.48;;;12.07;;
28180;SDS011;15464;50.988;10.318;2023-08-21T03:56:21;11.82;;;10.75;;
28180;SDS011;15464;50.988;10.318;2023-08-21T03:58:49;14.05;;;12.10;;
28180;SDS011;15464;50.988;10.318;2023-08-21T04:01:16;12.57;;;11.27;;
28180;SDS011;15464;50.988;10.318;2023-08-21T04:03:43;11.38;;;9.80;;
28180;SDS011;15464;50.988;10.318;2023-08-21T04:06:10;12.98;;;9.68;;
28180;SDS011;15464;50.988;10.318;2023-08-21T04:08:36;11.20;;;10.10;;
28180;SDS011;15464;50.988;10.318;2023-08-21T04:11:04;11.00;;;9.95;;
28180;SDS011;15464;50.988;10.318;2023-08-21T04:13:32;11.07;;;9.98;;
28180;SDS011;15464;50.988;10.318;2023-08-21T04:15:59;12.75;;;10.32;;
28180;SDS011;15464;50.988;10.318;2023-08-21T04:18:26;11.18;;;10.05;;
28180;SDS011;15464;50.988;10.318;2023-08-21T04:21:07;12.40;;;11.30;;
28180;SDS011;15464;50.988;10.318;2023-08-21T04:23:34;12.93;;;10.32;;
28180;SDS011;15464;50.988;10.318;2023-08-21T04:26:02;15.43;;;10.57;;
28180;SDS011;15464;50.988;10.318;2023-08-21T04:28:32;14.60;;;12.05;;
28180;SDS011;15464;50.988;10.318;2023-08-21T04:30:59;12.85;;;11.52;;
28180;SDS011;15464;50.988;10.318;2023-08-21T04:33:28;16.23;;;12.40;;
28180;SDS011;15464;50.988;10.318;2023-08-21T04:35:55;12.50;;;11.25;;
28180;SDS011;15464;50.988;10.318;2023-08-21T04:38:22;14.68;;;13.10;;
28180;SDS011;15464;50.988;10.318;2023-08-21T04:40:49;13.00;;;11.63;;
28180;SDS011;15464;50.988;10.318;2023-08-21T04:43:16;11.98;;;10.77;;
28180;SDS011;15464;50.988;10.318;2023-08-21T04:45:49;12.95;;;11.57;;
28180;SDS011;15464;50.988;10.318;2023-08-21T04:48:17;12.02;;;10.75;;
28180;SDS011;15464;50.988;10.318;2023-08-21T04:50:43;13.50;;;10.80;;
28180;SDS011;15464;50.988;10.318;2023-08-21T04:53:11;11.75;;;10.52;;
28180;SDS011;15464;50.988;10.318;2023-08-21T04:55:39;14.55;;;11.15;;
28180;SDS011;15464;50.988;10.318;2023-08-21T04:58:07;13.00;;;11.75;;
28180;SDS011;15464;50.988;10.318;2023-08-21T05:00:34;12.05;;;10.75;;
28180;SDS011;15464;50.988;10.318;2023-08-21T05:03:00;13.48;;;11.57;;
28180;SDS011;15464;50.988;10.318;2023-08-21T05:05:27;13.13;;;11.73;;
28180;SDS011;15464;50.988;10.318;2023-08-21T05:07:54;13.75;;;11.07;;
28180;SDS011;15464;50.988;10.318;2023-08-21T05:10:21;12.25;;;10.75;;
28180;SDS011;15464;50.988;10.318;2023-08-21T05:12:47;13.68;;;12.30;;
28180;SDS011;15464;50.988;10.318;2023-08-21T05:15:14;16.27;;;12.45;;
28180;SDS011;15464;50.988;10.318;2023-08-21T05:17:41;14.68;;;13.20;;
28180;SDS011;15464;50.988;10.318;2023-08-21T05:20:08;16.85;;;13.27;;
28180;SDS011;15464;50.988;10.318;2023-08-21T05:22:36;17.02;;;13.20;;
28180;SDS011;15464;50.988;10.318;2023-08-21T05:25:03;13.02;;;11.88;;
28180;SDS011;15464;50.988;10.318;2023-08-21T05:27:31;17.00;;;12.93;;
28180;SDS011;15464;50.988;10.318;2023-08-21T05:29:58;18.15;;;13.80;;
28180;SDS011;15464;50.988;10.318;2023-08-21T05:32:24;15.43;;;13.13;;
28180;SDS011;15464;50.988;10.318;2023-08-21T05:34:51;14.02;;;12.60;;
28180;SDS011;15464;50.988;10.318;2023-08-21T05:37:18;15.52;;;13.93;;
28180;SDS011;15464;50.988;10.318;2023-08-21T05:39:44;13.75;;;12.55;;
28180;SDS011;15464;50.988;10.318;2023-08-21T05:42:11;18.50;;;16.60;;
28180;SDS011;15464;50.988;10.318;2023-08-21T05:44:38;15.45;;;13.90;;
28180;SDS011;15464;50.988;10.318;2023-08-21T05:47:04;15.57;;;13.98;;
28180;SDS011;15464;50.988;10.318;2023-08-21T05:49:31;14.23;;;12.88;;
28180;SDS011;15464;50.988;10.318;2023-08-21T05:51:58;13.13;;;11.43;;
28180;SDS011;15464;50.988;10.318;2023-08-21T05:54:25;13.48;;;11.85;;
28180;SDS011;15464;50.988;10.318;2023-08-21T05:56:52;12.35;;;11.15;;
28180;SDS011;15464;50.988;10.318;2023-08-21T05:59:31;15.65;;;11.32;;
28180;SDS011;15464;50.988;10.318;2023-08-21T06:01:58;14.65;;;12.07;;
28180;SDS011;15464;50.988;10.318;2023-08-21T06:04:25;13.20;;;11.57;;
28180;SDS011;15464;50.988;10.318;2023-08-21T06:06:54;11.77;;;10.65;;
28180;SDS011;15464;50.988;10.318;2023-08-21T06:09:21;12.25;;;11.23;;
28180;SDS011;15464;50.988;10.318;2023-08-21T06:11:48;14.20;;;11.27;;
28180;SDS011;15464;50.988;10.318;2023-08-21T06:14:15;14.27;;;11.85;;
28180;SDS011;15464;50.988;10.318;2023-08-21T06:16:41;12.80;;;11.30;;
28180;SDS011;15464;50.988;10.318;2023-08-21T06:19:10;12.10;;;11.00;;
28180;SDS011;15464;50.988;10.318;2023-08-21T06:21:36;14.90;;;10.63;;
28180;SDS011;15464;50.988;10.318;2023-08-21T06:24:03;16.15;;;10.38;;
28180;SDS011;15464;50.988;10.318;2023-08-21T06:26:30;11.60;;;10.10;;
28180;SDS011;15464;50.988;10.318;2023-08-21T06:28:57;11.00;;;10.00;;
28180;SDS011;15464;50.988;10.318;2023-08-21T06:31:23;14.15;;;10.43;;
28180;SDS011;15464;50.988;10.318;2023-08-21T06:33:50;12.90;;;10.70;;
28180;SDS011;15464;50.988;10.318;2023-08-21T06:36:17;14.60;;;9.52;;
28180;SDS011;15464;50.988;10.318;2023-08-21T06:38:44;11.85;;;10.20;;
28180;SDS011;15464;50.988;10.318;2023-08-21T06:41:10;13.65;;;9.93;;
28180;SDS011;15464;50.988;10.318;2023-08-21T06:43:38;17.50;;;13.55;;
28180;SDS011;15464;50.988;10.318;2023-08-21T06:46:10;10.70;;;8.68;;
28180;SDS011;15464;50.988;10.318;2023-08-21T06:48:37;9.60;;;8.60;;
28180;SDS011;15464;50.988;10.318;2023-08-21T06:51:09;8.48;;;7.32;;
28180;SDS011;15464;50.988;10.318;2023-08-21T06:53:37;9.13;;;8.32;;
28180;SDS011;15464;50.988;10.318;2023-08-21T06:56:03;11.13;;;8.38;;
28180;SDS011;15464;50.988;10.318;2023-08-21T06:58:30;12.02;;;7.93;;
28180;SDS011;15464;50.988;10.318;2023-08-21T07:00:57;8.50;;;6.97;;
28180;SDS011;15464;50.988;10.318;2023-08-21T07:03:24;8.90;;;7.38;;
28180;SDS011;15464;50.988;10.318;2023-08-21T07:05:54;10.40;;;8.02;;
28180;SDS011;15464;50.988;10.318;2023-08-21T07:08:25;11.05;;;7.75;;
28180;SDS011;15464;50.988;10.318;2023-08-21T07:10:52;7.93;;;7.13;;
28180;SDS011;15464;50.988;10.318;2023-08-21T07:13:20;11.63;;;6.90;;
28180;SDS011;15464;50.988;10.318;2023-08-21T07:15:47;10.95;;;6.63;;
28180;SDS011;15464;50.988;10.318;2023-08-21T07:18:14;10.88;;;7.25;;
28180;SDS011;15464;50.988;10.318;2023-08-21T07:20:41;8.40;;;7.10;;
28180;SDS011;15464;50.988;10.318;2023-08-21T07:23:07;11.02;;;7.30;;
28180;SDS011;15464;50.988;10.318;2023-08-21T07:25:34;10.07;;;6.07;;
28180;SDS011;15464;50.988;10.318;2023-08-21T07:28:01;12.27;;;7.28;;
28180;SDS011;15464;50.988;10.318;2023-08-21T07:30:28;11.77;;;7.60;;
28180;SDS011;15464;50.988;10.318;2023-08-21T07:32:54;7.25;;;6.43;;
28180;SDS011;15464;50.988;10.318;2023-08-21T07:35:21;10.18;;;7.22;;
28180;SDS011;15464;50.988;10.318;2023-08-21T07:37:48;10.10;;;7.13;;
28180;SDS011;15464;50.988;10.318;2023-08-21T07:40:15;8.13;;;6.75;;
28180;SDS011;15464;50.988;10.318;2023-08-21T07:42:42;10.75;;;6.68;;
28180;SDS011;15464;50.988;10.318;2023-08-21T07:45:08;7.22;;;6.57;;
28180;SDS011;15464;50.988;10.318;2023-08-21T07:47:36;8.35;;;7.05;;
28180;SDS011;15464;50.988;10.318;2023-08-21T07:50:04;8.90;;;6.45;;
28180;SDS011;15464;50.988;10.318;2023-08-21T07:52:33;9.30;;;7.20;;
28180;SDS011;15464;50.988;10.318;2023-08-21T07:55:01;8.40;;;7.55;;
28180;SDS011;15464;50.988;10.318;2023-08-21T07:57:29;8.38;;;6.45;;
28180;SDS011;15464;50.988;10.318;2023-08-21T07:59:56;11.70;;;7.38;;
28180;SDS011;15464;50.988;10.318;2023-08-21T08:02:23;32.88;;;7.50;;
28180;SDS011;15464;50.988;10.318;2023-08-21T08:04:50;9.05;;;7.22;;
28180;SDS011;15464;50.988;10.318;2023-08-21T08:07:17;11.50;;;7.30;;
28180;SDS011;15464;50.988;10.318;2023-08-21T08:09:43;10.82;;;7.13;;
28180;SDS011;15464;50.988;10.318;2023-08-21T08:12:10;10.93;;;7.60;;
28180;SDS011;15464;50.988;10.318;2023-08-21T08:14:37;8.95;;;8.05;;
28180;SDS011;15464;50.988;10.318;2023-08-21T08:17:04;10.50;;;8.75;;
28180;SDS011;15464;50.988;10.318;2023-08-21T08:19:30;10.65;;;9.02;;
28180;SDS011;15464;50.988;10.318;2023-08-21T08:21:57;9.82;;;8.88;;
28180;SDS011;15464;50.988;10.318;2023-08-21T08:24:24;8.82;;;8.02;;
28180;SDS011;15464;50.988;10.318;2023-08-21T08:26:50;9.30;;;7.05;;
28180;SDS011;15464;50.988;10.318;2023-08-21T08:29:17;10.60;;;7.55;;
28180;SDS011;15464;50.988;10.318;2023-08-21T08:31:44;12.07;;;8.13;;
28180;SDS011;15464;50.988;10.318;2023-08-21T08:34:10;9.27;;;8.07;;
28180;SDS011;15464;50.988;10.318;2023-08-21T08:36:37;12.20;;;9.98;;
28180;SDS011;15464;50.988;10.318;2023-08-21T08:39:03;12.13;;;10.98;;
28180;SDS011;15464;50.988;10.318;2023-08-21T08:41:51;13.55;;;12.15;;
28180;SDS011;15464;50.988;10.318;2023-08-21T08:44:23;13.40;;;12.10;;
28180;SDS011;15464;50.988;10.318;2023-08-21T08:49:18;11.98;;;10.77;;
28180;SDS011;15464;50.988;10.318;2023-08-21T08:51:47;13.67;;;12.17;;
28180;SDS011;15464;50.988;10.318;2023-08-21T08:56:43;15.70;;;13.20;;
28180;SDS011;15464;50.988;10.318;2023-08-21T08:59:12;20.02;;;13.65;;
28180;SDS011;15464;50.988;10.318;2023-08-21T09:01:41;14.35;;;11.88;;
28180;SDS011;15464;50.988;10.318;2023-08-21T09:04:08;13.93;;;11.68;;
28180;SDS011;15464;50.988;10.318;2023-08-21T09:06:35;13.43;;;11.68;;
28180;SDS011;15464;50.988;10.318;2023-08-21T09:09:03;13.68;;;12.27;;
28180;SDS011;15464;50.988;10.318;2023-08-21T09:11:31;15.77;;;11.80;;
28180;SDS011;15464;50.988;10.318;2023-08-21T09:13:59;14.77;;;12.80;;
28180;SDS011;15464;50.988;10.318;2023-08-21T09:16:26;12.85;;;11.55;;
28180;SDS011;15464;50.988;10.318;2023-08-21T09:18:53;12.35;;;11.02;;
28180;SDS011;15464;50.988;10.318;2023-08-21T09:21:23;11.88;;;10.77;;
28180;SDS011;15464;50.988;10.318;2023-08-21T09:23:58;13.60;;;12.10;;
28180;SDS011;15464;50.988;10.318;2023-08-21T09:26:26;15.10;;;11.35;;
28180;SDS011;15464;50.988;10.318;2023-08-21T09:28:53;11.65;;;10.52;;
28180;SDS011;15464;50.988;10.318;2023-08-21T09:31:30;13.65;;;11.45;;
28180;SDS011;15464;50.988;10.318;2023-08-21T09:33:58;11.88;;;10.77;;
28180;SDS011;15464;50.988;10.318;2023-08-21T09:36:27;14.60;;;10.63;;
28180;SDS011;15464;50.988;10.318;2023-08-21T09:38:54;12.15;;;10.70;;
28180;SDS011;15464;50.988;10.318;2023-08-21T09:41:22;13.75;;;10.75;;
28180;SDS011;15464;50.988;10.318;2023-08-21T09:43:49;12.57;;;11.37;;
28180;SDS011;15464;50.988;10.318;2023-08-21T09:46:17;11.75;;;10.30;;
28180;SDS011;15464;50.988;10.318;2023-08-21T09:48:49;12.63;;;11.15;;
28180;SDS011;15464;50.988;10.318;2023-08-21T09:51:18;11.20;;;10.10;;
28180;SDS011;15464;50.988;10.318;2023-08-21T09:53:45;11.93;;;10.82;;
28180;SDS011;15464;50.988;10.318;2023-08-21T09:56:12;12.95;;;11.65;;
28180;SDS011;15464;50.988;10.318;2023-08-21T09:58:39;10.88;;;9.82;;
28180;SDS011;15464;50.988;10.318;2023-08-21T10:01:07;12.02;;;10.80;;
28180;SDS011;15464;50.988;10.318;2023-08-21T10:03:41;11.35;;;10.10;;
28180;SDS011;15464;50.988;10.318;2023-08-21T10:06:08;11.60;;;9.50;;
28180;SDS011;15464;50.988;10.318;2023-08-21T10:08:37;14.70;;;10.10;;
28180;SDS011;15464;50.988;10.318;2023-08-21T10:11:07;14.18;;;9.73;;
28180;SDS011;15464;50.988;10.318;2023-08-21T10:13:37;10.13;;;8.82;;
28180;SDS011;15464;50.988;10.318;2023-08-21T10:16:05;10.05;;;9.05;;
28180;SDS011;15464;50.988;10.318;2023-08-21T10:18:36;10.00;;;8.95;;
28180;SDS011;15464;50.988;10.318;2023-08-21T10:21:13;9.90;;;8.90;;
28180;SDS011;15464;50.988;10.318;2023-08-21T10:23:46;9.55;;;8.60;;
28180;SDS011;15464;50.988;10.318;2023-08-21T10:26:21;9.82;;;8.65;;
28180;SDS011;15464;50.988;10.318;2023-08-21T10:34:07;11.45;;;7.78;;
28180;SDS011;15464;50.988;10.318;2023-08-21T10:39:18;7.95;;;7.28;;
28180;SDS011;15464;50.988;10.318;2023-08-21T10:41:54;7.43;;;6.80;;
28180;SDS011;15464;50.988;10.318;2023-08-21T10:44:46;9.57;;;7.45;;
28180;SDS011;15464;50.988;10.318;2023-08-21T10:47:16;9.48;;;6.65;;
28180;SDS011;15464;50.988;10.318;2023-08-21T10:49:58;10.02;;;6.07;;
28180;SDS011;15464;50.988;10.318;2023-08-21T10:55:02;5.63;;;5.10;;
28180;SDS011;15464;50.988;10.318;2023-08-21T10:57:31;5.70;;;4.85;;
28180;SDS011;15464;50.988;10.318;2023-08-21T11:00:11;8.50;;;5.47;;
28180;SDS011;15464;50.988;10.318;2023-08-21T11:02:41;5.53;;;5.00;;
28180;SDS011;15464;50.988;10.318;2023-08-21T11:05:09;6.78;;;4.72;;
28180;SDS011;15464;50.988;10.318;2023-08-21T11:07:44;5.83;;;4.13;;
28180;SDS011;15464;50.988;10.318;2023-08-21T11:10:18;7.93;;;4.32;;
28180;SDS011;15464;50.988;10.318;2023-08-21T11:12:55;5.80;;;4.28;;
28180;SDS011;15464;50.988;10.318;2023-08-21T11:15:27;5.38;;;4.50;;
28180;SDS011;15464;50.988;10.318;2023-08-21T11:17:56;5.25;;;4.38;;
28180;SDS011;15464;50.988;10.318;2023-08-21T11:20:33;5.50;;;4.97;;
28180;SDS011;15464;50.988;10.318;2023-08-21T11:23:02;5.15;;;4.65;;
28180;SDS011;15464;50.988;10.318;2023-08-21T11:25:39;6.38;;;4.90;;
28180;SDS011;15464;50.988;10.318;2023-08-21T11:28:07;5.72;;;5.10;;
28180;SDS011;15464;50.988;10.318;2023-08-21T11:30:34;7.10;;;5.32;;
28180;SDS011;15464;50.988;10.318;2023-08-21T11:33:05;5.70;;;4.53;;
28180;SDS011;15464;50.988;10.318;2023-08-21T11:35:33;6.85;;;4.57;;
28180;SDS011;15464;50.988;10.318;2023-08-21T11:38:00;5.45;;;4.30;;
28180;SDS011;15464;50.988;10.318;2023-08-21T11:40:26;6.28;;;4.30;;
28180;SDS011;15464;50.988;10.318;2023-08-21T11:42:53;4.72;;;4.13;;
28180;SDS011;15464;50.988;10.318;2023-08-21T11:45:26;4.85;;;3.90;;
28180;SDS011;15464;50.988;10.318;2023-08-21T11:47:55;6.13;;;4.30;;
28180;SDS011;15464;50.988;10.318;2023-08-21T11:50:22;4.65;;;4.15;;
28180;SDS011;15464;50.988;10.318;2023-08-21T11:52:52;4.53;;;4.13;;
28180;SDS011;15464;50.988;10.318;2023-08-21T11:55:21;5.68;;;4.57;;
28180;SDS011;15464;50.988;10.318;2023-08-21T11:57:48;4.38;;;3.95;;
28180;SDS011;15464;50.988;10.318;2023-08-21T12:00:16;5.77;;;4.20;;
28180;SDS011;15464;50.988;10.318;2023-08-21T12:02:55;5.03;;;4.25;;
28180;SDS011;15464;50.988;10.318;2023-08-21T12:05:23;4.50;;;4.00;;
28180;SDS011;15464;50.988;10.318;2023-08-21T12:07:50;4.45;;;3.88;;
28180;SDS011;15464;50.988;10.318;2023-08-21T12:10:27;5.28;;;3.72;;
28180;SDS011;15464;50.988;10.318;2023-08-21T12:12:56;3.75;;;3.45;;
28180;SDS011;15464;50.988;10.318;2023-08-21T12:15:23;4.82;;;3.90;;
28180;SDS011;15464;50.988;10.318;2023-08-21T12:17:49;6.38;;;4.60;;
28180;SDS011;15464;50.988;10.318;2023-08-21T12:20:16;4.97;;;4.28;;
28180;SDS011;15464;50.988;10.318;2023-08-21T12:22:43;4.10;;;3.72;;
28180;SDS011;15464;50.988;10.318;2023-08-21T12:25:09;4.13;;;3.55;;
28180;SDS011;15464;50.988;10.318;2023-08-21T12:27:36;4.10;;;3.58;;
28180;SDS011;15464;50.988;10.318;2023-08-21T12:30:04;4.25;;;3.72;;
28180;SDS011;15464;50.988;10.318;2023-08-21T12:32:32;5.00;;;3.37;;
28180;SDS011;15464;50.988;10.318;2023-08-21T12:34:58;4.55;;;3.83;;
28180;SDS011;15464;50.988;10.318;2023-08-21T12:37:25;5.90;;;3.67;;
28180;SDS011;15464;50.988;10.318;2023-08-21T12:39:53;4.10;;;3.65;;
28180;SDS011;15464;50.988;10.318;2023-08-21T12:42:20;5.37;;;3.87;;
28180;SDS011;15464;50.988;10.318;2023-08-21T12:44:46;4.13;;;3.83;;
28180;SDS011;15464;50.988;10.318;2023-08-21T12:47:13;4.95;;;3.92;;
28180;SDS011;15464;50.988;10.318;2023-08-21T12:49:40;5.35;;;3.60;;
28180;SDS011;15464;50.988;10.318;2023-08-21T12:52:06;3.88;;;3.20;;
28180;SDS011;15464;50.988;10.318;2023-08-21T12:54:36;6.53;;;3.80;;
28180;SDS011;15464;50.988;10.318;2023-08-21T12:57:03;5.72;;;4.20;;
28180;SDS011;15464;50.988;10.318;2023-08-21T12:59:30;6.75;;;3.95;;
28180;SDS011;15464;50.988;10.318;2023-08-21T13:01:58;3.70;;;3.40;;
28180;SDS011;15464;50.988;10.318;2023-08-21T13:04:26;5.10;;;3.80;;
28180;SDS011;15464;50.988;10.318;2023-08-21T13:06:53;3.92;;;3.33;;
28180;SDS011;15464;50.988;10.318;2023-08-21T13:09:20;4.75;;;3.50;;
28180;SDS011;15464;50.988;10.318;2023-08-21T13:11:46;4.68;;;3.65;;
28180;SDS011;15464;50.988;10.318;2023-08-21T13:14:13;4.38;;;3.63;;
28180;SDS011;15464;50.988;10.318;2023-08-21T13:16:40;2.90;;;2.70;;
28180;SDS011;15464;50.988;10.318;2023-08-21T13:19:06;3.63;;;2.90;;
28180;SDS011;15464;50.988;10.318;2023-08-21T13:21:33;4.22;;;2.90;;
28180;SDS011;15464;50.988;10.318;2023-08-21T13:24:00;3.67;;;2.95;;
28180;SDS011;15464;50.988;10.318;2023-08-21T13:26:29;113.15;;;8.85;;
28180;SDS011;15464;50.988;10.318;2023-08-21T13:28:57;4.00;;;2.65;;
28180;SDS011;15464;50.988;10.318;2023-08-21T13:31:24;3.30;;;3.00;;
28180;SDS011;15464;50.988;10.318;2023-08-21T13:33:51;5.03;;;3.22;;
28180;SDS011;15464;50.988;10.318;2023-08-21T13:36:20;3.22;;;2.92;;
28180;SDS011;15464;50.988;10.318;2023-08-21T13:38:50;4.55;;;3.00;;
28180;SDS011;15464;50.988;10.318;2023-08-21T13:41:17;3.70;;;2.85;;
28180;SDS011;15464;50.988;10.318;2023-08-21T13:43:44;4.63;;;3.20;;
28180;SDS011;15464;50.988;10.318;2023-08-21T13:46:11;3.92;;;3.10;;
28180;SDS011;15464;50.988;10.318;2023-08-21T13:48:38;4.78;;;3.03;;
28180;SDS011;15464;50.988;10.318;2023-08-21T13:51:05;3.67;;;3.00;;
28180;SDS011;15464;50.988;10.318;2023-08-21T13:53:32;6.05;;;2.95;;
28180;SDS011;15464;50.988;10.318;2023-08-21T13:55:59;4.13;;;2.97;;
28180;SDS011;15464;50.988;10.318;2023-08-21T13:58:25;3.33;;;2.55;;
28180;SDS011;15464;50.988;10.318;2023-08-21T14:00:52;5.45;;;2.63;;
28180;SDS011;15464;50.988;10.318;2023-08-21T14:03:19;3.78;;;2.90;;
28180;SDS011;15464;50.988;10.318;2023-08-21T14:05:46;4.22;;;2.50;;
28180;SDS011;15464;50.988;10.318;2023-08-21T14:08:13;5.78;;;2.95;;
28180;SDS011;15464;50.988;10.318;2023-08-21T14:10:40;2.78;;;2.58;;
28180;SDS011;15464;50.988;10.318;2023-08-21T14:13:06;4.03;;;2.80;;
28180;SDS011;15464;50.988;10.318;2023-08-21T14:15:34;5.00;;;2.80;;
28180;SDS011;15464;50.988;10.318;2023-08-21T14:18:01;3.00;;;2.55;;
28180;SDS011;15464;50.988;10.318;2023-08-21T14:20:29;3.20;;;2.90;;
28180;SDS011;15464;50.988;10.318;2023-08-21T14:22:56;6.72;;;3.42;;
28180;SDS011;15464;50.988;10.318;2023-08-21T14:25:22;4.65;;;3.08;;
28180;SDS011;15464;50.988;10.318;2023-08-21T14:27:49;3.85;;;2.80;;
28180;SDS011;15464;50.988;10.318;2023-08-21T14:30:16;3.03;;;2.75;;
28180;SDS011;15464;50.988;10.318;2023-08-21T14:32:42;2.63;;;2.42;;
28180;SDS011;15464;50.988;10.318;2023-08-21T14:35:10;2.40;;;2.17;;
28180;SDS011;15464;50.988;10.318;2023-08-21T14:37:37;10.25;;;2.67;;
28180;SDS011;15464;50.988;10.318;2023-08-21T14:40:05;2.25;;;2.00;;
28180;SDS011;15464;50.988;10.318;2023-08-21T14:42:34;4.18;;;2.53;;
28180;SDS011;15464;50.988;10.318;2023-08-21T14:45:02;3.25;;;2.50;;